Flight Track Log - Related Links

Times and Time Zones

All times are in EDT time to prevent confusion due to time zone crossing. See the EJA929 flight status page for this flight to view local times or setup timezone preferences in your user account.

Time Position Orientation Groundspeed Altitude Reporting Facility
EDT Latitude Longitude Course Direction KTS MPH feet Rate Location/Type
Sun 10:09:40 PM 29.6058 -95.6556 166° South 152 175 1,000  Level Houston Center
Sun 10:10:39 PM 29.5583 -95.6422 166° South 185 213 2,700 2,348 Climbing Houston Center
Sun 10:11:12 PM 29.5467 -95.6047 110° East 229 264 4,600 2,951 Climbing Houston Center
Sun 10:11:40 PM 29.5458 -95.5703 92° East 228 262 5,700 2,444 Climbing Houston Center
Sun 10:12:06 PM 29.5444 -95.5356 93° East 266 306 6,800 2,656 Climbing Houston Center
Sun 10:12:41 PM 29.5417 -95.4828 93° East 268 308 8,400 2,734 Climbing Houston Center
Sun 10:13:25 PM 29.5392 -95.4064 92° East 307 353 10,400 2,164 Climbing Houston Center
Sun 10:13:42 PM 29.5417 -95.3861 82° East 299 344 10,600 923 Climbing Houston Center
Sun 10:14:43 PM 29.5619 -95.2717 78° East 365 420 11,600 1,230 Climbing Houston Center
Sun 10:15:44 PM 29.5803 -95.1611 79° East 387 445 13,100 1,770 Climbing Houston Center
Sun 10:16:45 PM 29.6075 -95.0089 78° East 399 459 15,200 1,869 Climbing Houston Center
Sun 10:17:46 PM 29.6300 -94.8808 79° East 407 468 16,900 1,623 Climbing Houston Center
Sun 10:18:47 PM 29.6522 -94.7489 79° East 417 480 18,500 1,525 Climbing Houston Center
Sun 10:19:48 PM 29.6753 -94.6133 79° East 426 490 20,000 1,475 Climbing Houston Center
Sun 10:20:49 PM 29.6989 -94.4742 79° East 440 506 21,500 1,574 Climbing Houston Center
Sun 10:21:50 PM 29.7194 -94.3294 81° East 457 526 23,200 1,672 Climbing Houston Center
Sun 10:22:51 PM 29.7028 -94.1814 97° East 464 534 24,900 1,525 Climbing Houston Center
Sun 10:23:52 PM 29.6825 -94.0375 99° East 472 543 26,300 1,426 Climbing Houston Center
Sun 10:24:53 PM 29.6519 -93.8867 103° East 484 557 27,800 1,623 Climbing Houston Center
Sun 10:25:54 PM 29.6156 -93.7006 103° East 499 574 29,600 1,721 Climbing Houston Center
Sun 10:26:55 PM 29.5861 -93.5433 102° East 505 581 31,300 1,721 Climbing Houston Center
Sun 10:27:56 PM 29.5547 -93.3836 103° East 510 587 33,100 1,820 Climbing Houston Center
Sun 10:28:57 PM 29.5231 -93.2247 103° East 513 590 35,000 984 Climbing Houston Center
Sun 10:29:58 PM 29.4900 -93.0572 103° East 539 620 35,100 689 Climbing Houston Center
Sun 10:30:59 PM 29.4553 -92.8825 103° East 560 644 36,400 1,475 Climbing Houston Center
Sun 10:32:00 PM 29.4208 -92.7131 103° East 556 640 38,100 1,672 Climbing Houston Center
Sun 10:33:01 PM 29.3864 -92.5442 103° East 550 633 39,800 1,377 Climbing Houston Center
Sun 10:34:02 PM 29.3531 -92.3781 103° East 538 619 40,900 590 Climbing Houston Center
Sun 10:35:03 PM 29.3117 -92.1811 104° East 536 617 41,000 49 Climbing Houston Center
Sun 10:36:04 PM 29.2783 -92.0192 103° East 528 608 41,000  Level Houston Center
Sun 10:37:05 PM 29.2450 -91.8586 103° East 523 602 41,000  Level Houston Center
Sun 10:38:06 PM 29.2131 -91.7075 104° East 520 598 41,000  Level Houston Center
Sun 10:39:07 PM 29.1786 -91.5458 104° East 521 600 41,000  Level Houston Center
Sun 10:40:09 PM 29.1433 -91.3842 104° East 523 602 41,000  Level Houston Center
Sun 10:41:10 PM 29.1097 -91.2211 103° East 526 605 41,000  Level Houston Center
Sun 10:42:11 PM 29.0731 -91.0583 104° East 528 608 41,000  Level Houston Center
Sun 10:43:12 PM 29.0311 -90.8617 104° East 531 611 41,000  Level Houston Center
Sun 10:44:13 PM 28.9953 -90.6975 104° East 535 616 41,000  Level Houston Center
Sun 10:45:14 PM 28.9589 -90.5328 104° East 535 616 41,000  Level Houston Center
Sun 10:46:15 PM 28.9233 -90.3683 104° East 538 619 41,000  Level Houston Center
Sun 10:47:16 PM 28.8861 -90.2028 104° East 538 619 41,000  Level Houston Center
Sun 10:48:17 PM 28.8489 -90.0381 104° East 538 619 41,000  Level Houston Center
Sun 10:49:18 PM 28.8125 -89.8767 104° East 533 613 41,000  Level Houston Center
Sun 10:50:19 PM 28.7744 -89.7122 105° East 534 615 41,000  Level Houston Center
Sun 10:51:21 PM 28.7378 -89.5458 104° East 541 623 41,000  Level Houston Center
Sun 10:52:21 PM 28.7042 -89.3811 103° East 541 623 41,000  Level Houston Center
Sun 10:53:22 PM 28.6617 -89.1842 104° East 536 617 41,000  Level Houston Center
Sun 10:54:23 PM 28.6267 -89.0206 104° East 537 618 41,000  Level Houston Center
Sun 10:55:24 PM 28.5906 -88.8553 104° East 537 618 41,000  Level Houston Center
Sun 10:56:25 PM 28.5553 -88.6922 104° East 537 618 41,000  Level Houston Center
Sun 10:57:26 PM 28.5194 -88.5297 104° East 534 615 41,000  Level Houston Center
Sun 10:58:27 PM 28.4844 -88.3667 104° East 534 615 41,000  Level Houston Center
Sun 10:59:28 PM 28.4483 -88.2044 104° East 531 611 41,000  Level Houston Center
Sun 11:00:29 PM 28.4136 -88.0492 104° East 531 611 41,000  Level Houston Center
Sun 11:01:30 PM 28.3772 -87.8892 104° East 530 610 41,000  Level Houston Center
Sun 11:02:31 PM 28.3339 -87.6944 104° East 530 610 41,000  Level Houston Center
Sun 11:03:32 PM 28.2967 -87.5331 105° East 530 610 41,000  Level Houston Center
Sun 11:04:33 PM 28.2600 -87.3717 104° East 530 610 41,000  Level Houston Center
Sun 11:05:34 PM 28.2236 -87.2108 104° East 530 610 41,000  Level Houston Center
Sun 11:06:09 PM 28.1997 -87.1103 105° East 523 602 41,000  Level Jacksonville Center
Sun 11:07:09 PM 28.1650 -86.9558 104° East 523 602 41,000  Level Jacksonville Center
Sun 11:08:09 PM 28.1242 -86.7917 106° East 529 609 41,000  Level Jacksonville Center
Sun 11:09:09 PM 28.0894 -86.6328 104° East 524 603 41,000  Level Jacksonville Center
Sun 11:10:09 PM 28.0500 -86.4714 105° East 524 603 41,000  Level Jacksonville Center
Sun 11:11:09 PM 28.0106 -86.3103 105° East 524 603 41,000  Level Jacksonville Center
Sun 11:12:09 PM 27.9711 -86.1492 105° East 524 603 41,000  Level Jacksonville Center
Sun 11:13:09 PM 27.9333 -85.9858 105° East 524 603 41,000  Level Jacksonville Center
Sun 11:14:09 PM 27.8931 -85.8344 107° East 524 603 41,000  Level Jacksonville Center
Sun 11:16:18 PM 27.8083 -85.4775 105° East 524 603 41,000  Level Miami Center
Sun 11:17:18 PM 27.7739 -85.3225 104° East 524 603 41,000  Level Miami Center
Sun 11:18:20 PM 27.7292 -85.1575 107° East 531 611 41,000  Level Miami Center
Sun 11:19:21 PM 27.6886 -84.9956 106° East 536 617 41,000  Level Miami Center
Sun 11:20:20 PM 27.6372 -84.8328 110° East 541 623 41,000  Level Miami Center
Sun 11:21:20 PM 27.5919 -84.6703 107° East 541 623 41,000  Level Miami Center
Sun 11:22:18 PM 27.5442 -84.5106 109° East 541 623 41,000  Level Miami Center
Sun 11:23:18 PM 27.4900 -84.3503 111° Southeast 536 617 41,000  Level Miami Center
Sun 11:24:21 PM 27.4481 -84.1933 107° East 536 617 41,000  Level Miami Center
Sun 11:25:19 PM 27.4019 -84.0339 108° East 536 617 41,000  Level Miami Center
Sun 11:26:19 PM 27.3575 -83.8769 108° East 536 617 41,000  Level Miami Center
Sun 11:27:21 PM 27.3108 -83.7175 108° East 536 617 41,000  Level Miami Center
Sun 11:28:19 PM 27.2581 -83.5581 110° East 536 617 41,000  Level Miami Center
Sun 11:29:19 PM 27.2150 -83.4039 107° East 536 617 41,000  Level Miami Center
Sun 11:30:21 PM 27.1656 -83.2472 109° East 531 611 41,000  Level Miami Center
Sun 11:31:20 PM 27.1183 -83.0908 109° East 531 611 41,000  Level Miami Center
Sun 11:32:18 PM 27.0683 -82.9367 110° East 531 611 41,000 -1,008 Level Miami Center
Sun 11:33:19 PM 27.0231 -82.7758 108° East 531 611 39,000 -2,341 Descending Miami Center
Sun 11:34:21 PM 26.9764 -82.6339 110° East 541 623 36,200 -2,777 Descending Miami Center
Sun 11:35:20 PM 26.9303 -82.4825 109° East 527 606 33,400 -2,800 Descending Miami Center
Sun 11:36:21 PM 26.8800 -82.3242 110° East 527 606 30,600 -2,826 Descending Miami Center
Sun 11:37:21 PM 26.8275 -82.1633 110° East 540 621 27,700 -2,923 Descending Miami Center
Sun 11:38:18 PM 26.7789 -82.0056 109° East 540 621 24,900 -2,872 Descending Miami Center
Sun 11:39:18 PM 26.7300 -81.8522 110° East 528 608 22,100 -2,750 Descending Miami Center
Sun 11:40:18 PM 26.6911 -81.7089 107° East 505 581 19,400 -2,700 Descending Miami Center
Sun 11:41:18 PM 26.7017 -81.5722 85° East 442 509 16,700 -1,918 Descending Miami Center
Sun 11:42:20 PM 26.7289 -81.4408 77° East 430 495 15,500 -1,317 Descending Miami Center
Sun 11:43:21 PM 26.7564 -81.2953 78° East 430 495 14,000 -1,373 Descending Miami Center
Sun 11:44:18 PM 26.7814 -81.1636 78° East 430 495 12,800 -1,210 Descending Miami Center
Sun 11:45:20 PM 26.8081 -81.0342 77° East 425 489 11,600 -1,190 Descending Miami Center
Sun 11:46:19 PM 26.8281 -80.9186 79° East 425 489 10,400 -800 Descending Miami Center
Sun 11:47:20 PM 26.8125 -80.7947 98° East 401 461 10,000 -200 Descending Miami Center
Sun 11:48:19 PM 26.7806 -80.6706 106° East 386 444 10,000  Level Miami Center
Sun 11:49:18 PM 26.7497 -80.5600 107° East 399 459 10,000 -148 Level Miami Center
Sun 11:50:21 PM 26.7233 -80.4478 105° East 364 419 9,700 -984 Descending Miami Center
Sun 11:51:20 PM 26.7025 -80.3681 106° East 309 356 8,000 -1,780 Descending Miami Center
Sun 11:52:19 PM 26.6586 -80.2806 119° Southeast 285 328 6,200 -1,729 Descending Miami Center
Sun 11:53:18 PM 26.6161 -80.2192 128° Southeast 280 322 4,600 -1,587 Descending Miami Center
Sun 11:54:20 PM 26.5739 -80.1506 125° Southeast 275 316 3,000 -1,548 Descending Miami Center
Sun 11:56:00 PM 26.6667 -80.0833 50° Northeast  Level FlightAware Approximate
Mon 12:03:00 AM 26.6832 -80.0956 50° Northeast  Level Estimated
Mon 12:04:00 AM 26.6832 -80.0956 50° Northeast  Level Estimated
Mon 12:05:00 AM 26.6832 -80.0956 50° Northeast  Level Estimated
Mon 12:06:00 AM 26.6832 -80.0956 50° Northeast  Level Estimated
Mon 12:07:00 AM 26.6832 -80.0956 50° Northeast  Level Estimated

Login

Don't have an account? Register now (free) for customized features, flight alerts, and more!